createdAt,value
2019-01-29T00:01:12.263Z,8.70
2019-01-29T00:03:41.442Z,9.77
2019-01-29T00:06:11.154Z,11.13
2019-01-29T00:08:41.641Z,9.90
2019-01-29T00:11:10.472Z,8.33
2019-01-29T00:13:39.455Z,9.03
2019-01-29T00:16:11.666Z,8.00
2019-01-29T00:18:41.205Z,17.50
2019-01-29T00:21:11.331Z,9.50
2019-01-29T00:23:40.210Z,11.13
2019-01-29T00:26:10.527Z,11.40
2019-01-29T00:28:39.363Z,12.50
2019-01-29T00:31:08.478Z,7.07
2019-01-29T00:33:37.345Z,13.00
2019-01-29T00:36:07.536Z,7.70
2019-01-29T00:38:36.506Z,14.17
2019-01-29T00:41:08.492Z,13.70
2019-01-29T00:43:37.462Z,9.63
2019-01-29T00:46:06.606Z,12.63
2019-01-29T00:48:38.132Z,9.23
2019-01-29T00:51:07.384Z,11.40
2019-01-29T00:53:37.632Z,10.90
2019-01-29T00:56:06.812Z,8.83
2019-01-29T00:58:35.802Z,15.57
2019-01-29T01:01:06.280Z,11.60
2019-01-29T01:03:35.303Z,10.03
2019-01-29T01:06:04.955Z,9.30
2019-01-29T01:08:33.771Z,12.43
2019-01-29T01:11:04.728Z,15.23
2019-01-29T01:13:33.614Z,12.70
2019-01-29T01:16:03.983Z,12.27
2019-01-29T01:18:33.000Z,14.83
2019-01-29T01:21:01.940Z,12.60
2019-01-29T01:23:30.821Z,16.03
2019-01-29T01:26:00.112Z,15.87
2019-01-29T01:28:28.902Z,15.00
2019-01-29T01:30:57.815Z,14.53
2019-01-29T01:33:26.684Z,13.93
2019-01-29T01:35:55.752Z,18.07
2019-01-29T01:38:24.732Z,14.90
2019-01-29T01:40:53.742Z,15.73
2019-01-29T01:43:22.673Z,21.50
2019-01-29T01:45:51.636Z,31.60
2019-01-29T01:48:20.749Z,24.63
2019-01-29T01:50:50.429Z,20.77
2019-01-29T01:53:19.343Z,19.87
2019-01-29T01:55:48.573Z,17.27
2019-01-29T01:58:17.463Z,20.13
2019-01-29T02:00:46.398Z,21.90
2019-01-29T02:03:17.227Z,26.63
2019-01-29T02:05:46.031Z,20.70
2019-01-29T02:08:14.923Z,27.73
2019-01-29T02:10:43.746Z,13.37
2019-01-29T02:13:12.591Z,22.87
2019-01-29T02:15:41.725Z,23.60
2019-01-29T02:18:10.683Z,22.07
2019-01-29T02:20:39.556Z,18.13
2019-01-29T02:23:08.499Z,28.23
2019-01-29T02:25:38.477Z,25.17
2019-01-29T02:28:07.672Z,17.90
2019-01-29T02:30:36.888Z,20.07
2019-01-29T02:33:06.086Z,20.73
2019-01-29T02:35:35.804Z,19.83
2019-01-29T02:38:04.803Z,15.77
2019-01-29T02:40:33.671Z,16.20
2019-01-29T02:43:02.768Z,16.80
2019-01-29T02:45:31.559Z,25.60
2019-01-29T02:48:00.412Z,16.73
2019-01-29T02:50:32.310Z,18.33
2019-01-29T02:53:01.341Z,22.13
2019-01-29T02:55:30.241Z,16.67
2019-01-29T02:57:59.090Z,15.77
2019-01-29T03:00:28.593Z,19.43
2019-01-29T03:02:57.435Z,17.87
2019-01-29T03:05:26.386Z,18.40
2019-01-29T03:07:55.459Z,22.63
2019-01-29T03:10:26.457Z,20.13
2019-01-29T03:12:55.814Z,23.67
2019-01-29T03:15:27.498Z,15.70
2019-01-29T03:17:56.982Z,18.40
2019-01-29T03:20:26.114Z,19.33
2019-01-29T03:22:54.957Z,19.07
2019-01-29T03:25:23.846Z,19.23
2019-01-29T03:27:52.662Z,15.73
2019-01-29T03:30:23.070Z,16.27
2019-01-29T03:32:51.939Z,15.33
2019-01-29T03:35:20.993Z,20.53
2019-01-29T03:37:50.095Z,17.30
2019-01-29T03:40:21.807Z,24.37
2019-01-29T03:42:50.612Z,22.63
2019-01-29T03:45:20.053Z,12.67
2019-01-29T03:47:48.940Z,17.37
2019-01-29T03:50:21.016Z,21.63
2019-01-29T03:52:52.404Z,18.23
2019-01-29T03:55:21.392Z,16.83
2019-01-29T03:57:50.553Z,24.70
2019-01-29T04:00:22.305Z,16.80
2019-01-29T04:02:51.294Z,21.93
2019-01-29T04:05:20.467Z,19.53
2019-01-29T04:07:49.482Z,23.30
2019-01-29T04:10:19.999Z,16.33
2019-01-29T04:12:48.776Z,29.37
2019-01-29T04:15:20.576Z,23.03
2019-01-29T04:17:52.049Z,31.30
2019-01-29T04:20:21.683Z,27.37
2019-01-29T04:22:51.667Z,22.87
2019-01-29T04:25:21.046Z,35.60
2019-01-29T04:27:49.911Z,23.77
2019-01-29T04:30:20.938Z,31.47
2019-01-29T04:32:49.970Z,24.73
2019-01-29T04:35:19.037Z,34.13
2019-01-29T04:37:49.351Z,42.90
2019-01-29T04:40:20.132Z,33.73
2019-01-29T04:42:49.108Z,34.17
2019-01-29T04:45:18.868Z,44.27
2019-01-29T04:47:49.165Z,32.43
2019-01-29T04:50:20.730Z,41.80
2019-01-29T04:52:51.122Z,39.90
2019-01-29T04:55:20.307Z,36.70
2019-01-29T04:57:49.201Z,42.77
2019-01-29T05:00:20.607Z,50.87
2019-01-29T05:02:50.881Z,36.97
2019-01-29T05:05:20.693Z,43.23
2019-01-29T05:07:49.670Z,41.10
2019-01-29T05:10:20.177Z,50.07
2019-01-29T05:12:49.160Z,52.27
2019-01-29T05:15:19.782Z,53.10
2019-01-29T05:17:49.798Z,51.87
2019-01-29T05:20:21.086Z,47.43
2019-01-29T05:22:51.862Z,51.30
2019-01-29T05:25:21.066Z,48.57
2019-01-29T05:27:50.128Z,52.37
2019-01-29T05:30:21.317Z,65.77
2019-01-29T05:32:50.693Z,62.60
2019-01-29T05:35:19.771Z,59.60
2019-01-29T05:37:48.690Z,72.50
2019-01-29T05:40:19.929Z,61.83
2019-01-29T05:42:50.953Z,53.53
2019-01-29T05:45:21.335Z,76.53
2019-01-29T05:47:50.340Z,63.33
2019-01-29T05:50:22.310Z,69.07
2019-01-29T05:52:51.377Z,72.23
2019-01-29T05:55:20.348Z,57.23
2019-01-29T05:57:49.275Z,67.77
2019-01-29T06:00:21.271Z,69.23
2019-01-29T06:02:50.164Z,57.27
2019-01-29T06:05:21.614Z,72.90
2019-01-29T06:07:50.568Z,68.27
2019-01-29T06:10:20.007Z,64.93
2019-01-29T06:12:48.887Z,60.67
2019-01-29T06:15:20.580Z,70.97
2019-01-29T06:17:49.680Z,74.30
2019-01-29T06:20:21.033Z,63.90
2019-01-29T06:22:50.081Z,71.87
2019-01-29T06:25:19.195Z,68.53
2019-01-29T06:27:48.655Z,68.60
2019-01-29T06:30:19.784Z,67.87
2019-01-29T06:32:49.005Z,81.70
2019-01-29T06:35:19.307Z,68.50
2019-01-29T06:37:48.150Z,70.90
2019-01-29T06:40:19.345Z,68.93
2019-01-29T06:42:48.644Z,82.20
2019-01-29T06:45:19.522Z,75.33
2019-01-29T06:47:48.647Z,79.90
2019-01-29T06:50:19.801Z,68.10
2019-01-29T06:52:48.644Z,67.63
2019-01-29T06:55:19.456Z,70.67
2019-01-29T06:57:55.155Z,62.13
2019-01-29T07:00:22.729Z,58.50
2019-01-29T07:02:52.099Z,60.20
2019-01-29T07:05:21.001Z,65.90
2019-01-29T07:07:49.961Z,55.80
2019-01-29T07:10:20.972Z,57.03
2019-01-29T07:12:49.824Z,55.53
2019-01-29T07:15:22.712Z,54.93
2019-01-29T07:17:51.478Z,56.97
2019-01-29T07:20:20.269Z,63.60
2019-01-29T07:22:50.604Z,64.03
2019-01-29T07:25:22.346Z,64.23
2019-01-29T07:27:51.763Z,55.47
2019-01-29T07:30:20.917Z,58.87
2019-01-29T07:32:49.745Z,56.10
2019-01-29T07:35:18.681Z,55.10
2019-01-29T07:37:47.635Z,52.80
2019-01-29T07:40:17.877Z,51.37
2019-01-29T07:42:46.746Z,56.50
2019-01-29T07:45:15.982Z,50.23
2019-01-29T07:47:44.895Z,52.70
2019-01-29T07:50:15.096Z,52.20
2019-01-29T07:52:44.094Z,46.80
2019-01-29T07:55:14.599Z,50.63
2019-01-29T07:57:43.493Z,55.07
2019-01-29T08:00:16.106Z,53.93
2019-01-29T08:02:45.108Z,58.97
2019-01-29T08:05:14.960Z,52.97
2019-01-29T08:07:45.611Z,54.47
2019-01-29T08:10:16.770Z,53.37
2019-01-29T08:12:45.767Z,51.93
2019-01-29T08:15:17.453Z,58.67
2019-01-29T08:17:48.793Z,49.10
2019-01-29T08:20:19.311Z,51.10
2019-01-29T08:22:48.426Z,40.60
2019-01-29T08:25:17.458Z,39.37
2019-01-29T08:27:48.327Z,36.40
2019-01-29T08:30:19.022Z,41.13
2019-01-29T08:32:47.904Z,34.57
2019-01-29T08:35:18.110Z,38.77
2019-01-29T08:37:47.888Z,30.70
2019-01-29T08:40:19.268Z,42.97
2019-01-29T08:42:48.070Z,38.43
2019-01-29T08:45:18.906Z,31.63
2019-01-29T08:47:48.568Z,37.60
2019-01-29T08:50:20.258Z,33.20
2019-01-29T08:52:49.249Z,39.67
2019-01-29T08:55:18.378Z,46.87
2019-01-29T08:57:47.230Z,56.87
2019-01-29T09:00:18.328Z,53.13
2019-01-29T09:02:47.903Z,48.17
2019-01-29T09:05:17.920Z,49.60
2019-01-29T09:07:46.908Z,47.30
2019-01-29T09:10:18.233Z,48.33
2019-01-29T09:12:48.532Z,46.43
2019-01-29T09:15:19.324Z,45.80
2019-01-29T09:17:48.905Z,54.40
2019-01-29T09:20:20.052Z,58.80
2019-01-29T09:22:49.254Z,48.67
2019-01-29T09:25:22.546Z,41.90
2019-01-29T09:27:49.284Z,53.00
2019-01-29T09:30:20.706Z,41.07
2019-01-29T09:32:49.685Z,44.00
2019-01-29T09:35:18.726Z,42.37
2019-01-29T09:37:47.516Z,49.13
2019-01-29T09:40:20.630Z,53.17
2019-01-29T09:42:49.747Z,43.37
2019-01-29T09:45:20.354Z,48.80
2019-01-29T09:47:49.472Z,48.53
2019-01-29T09:50:20.955Z,47.20
2019-01-29T09:52:50.625Z,44.33
2019-01-29T09:55:28.892Z,54.23
2019-01-29T09:57:53.160Z,48.30
2019-01-29T10:00:24.848Z,52.63
2019-01-29T10:02:55.093Z,54.03
2019-01-29T10:05:24.570Z,52.07
2019-01-29T10:07:53.558Z,50.40
2019-01-29T10:10:23.480Z,66.20
2019-01-29T10:12:52.433Z,46.17
2019-01-29T10:15:24.111Z,48.57
2019-01-29T10:17:53.394Z,45.33
2019-01-29T10:20:22.489Z,44.63
2019-01-29T10:22:51.603Z,46.57
2019-01-29T10:25:21.148Z,46.20
2019-01-29T10:27:50.043Z,48.23
2019-01-29T10:30:21.787Z,38.10
2019-01-29T10:32:50.579Z,41.03
2019-01-29T10:35:22.327Z,39.60
2019-01-29T10:37:51.128Z,38.67
2019-01-29T10:40:22.510Z,40.37
2019-01-29T10:42:51.921Z,40.30
2019-01-29T10:45:22.469Z,41.03
2019-01-29T10:47:51.425Z,35.23
2019-01-29T10:50:22.953Z,38.10
2019-01-29T10:52:52.603Z,41.03
2019-01-29T10:55:21.958Z,31.23
2019-01-29T10:57:51.659Z,27.13
2019-01-29T11:00:23.744Z,22.43
2019-01-29T11:02:53.186Z,36.97
2019-01-29T11:05:22.587Z,30.33
2019-01-29T11:07:51.419Z,36.87
2019-01-29T11:10:21.183Z,34.83
2019-01-29T11:12:50.886Z,27.23
2019-01-29T11:15:22.821Z,23.83
2019-01-29T11:17:52.051Z,31.00
2019-01-29T11:20:21.201Z,28.70
2019-01-29T11:22:50.317Z,25.93
2019-01-29T11:25:22.065Z,20.40
2019-01-29T11:27:55.702Z,33.60
2019-01-29T11:30:27.259Z,22.07
2019-01-29T11:32:57.029Z,22.77
2019-01-29T11:35:26.010Z,18.90
2019-01-29T11:37:55.345Z,28.73
2019-01-29T11:40:26.897Z,15.27
2019-01-29T11:42:55.870Z,14.37
2019-01-29T11:45:27.566Z,30.13
2019-01-29T11:47:59.455Z,20.33
2019-01-29T11:50:28.575Z,21.00
2019-01-29T11:52:57.521Z,15.03
2019-01-29T11:55:37.467Z,26.07
2019-01-29T11:58:06.763Z,22.63
2019-01-29T12:00:39.088Z,29.53
2019-01-29T12:03:08.072Z,16.60
2019-01-29T12:05:37.320Z,15.00
2019-01-29T12:08:06.833Z,16.43
2019-01-29T12:10:39.979Z,17.53
2019-01-29T12:13:08.883Z,13.17
2019-01-29T12:15:37.909Z,22.50
2019-01-29T12:18:07.107Z,16.80
2019-01-29T12:20:36.230Z,12.30
2019-01-29T12:23:05.308Z,11.07
2019-01-29T12:25:34.462Z,13.17
2019-01-29T12:28:03.479Z,10.07
2019-01-29T12:30:32.589Z,17.57
2019-01-29T12:33:03.960Z,19.53
2019-01-29T12:35:33.191Z,18.73
2019-01-29T12:38:02.074Z,15.80
2019-01-29T12:40:37.032Z,13.33
2019-01-29T12:43:06.682Z,18.43
2019-01-29T12:45:35.739Z,18.60
2019-01-29T12:48:05.127Z,11.37
2019-01-29T12:50:35.504Z,11.93
2019-01-29T12:53:06.620Z,20.30
2019-01-29T12:55:35.735Z,27.77
2019-01-29T12:58:04.949Z,16.93
2019-01-29T13:00:35.583Z,17.20
2019-01-29T13:03:07.363Z,21.80
2019-01-29T13:05:36.332Z,20.07
2019-01-29T13:08:06.233Z,24.57
2019-01-29T13:10:36.929Z,17.90
2019-01-29T13:13:12.449Z,27.93
2019-01-29T13:15:41.437Z,17.90
2019-01-29T13:18:12.138Z,22.43
2019-01-29T13:20:41.904Z,20.23
2019-01-29T13:23:10.873Z,20.93
2019-01-29T13:25:39.812Z,23.87
2019-01-29T13:28:08.834Z,28.60
2019-01-29T13:30:38.814Z,17.50
2019-01-29T13:33:10.571Z,18.90
2019-01-29T13:35:41.215Z,18.63
2019-01-29T13:38:10.980Z,13.63
2019-01-29T13:40:40.093Z,17.57
2019-01-29T13:43:09.470Z,13.73
2019-01-29T13:45:39.386Z,16.30
2019-01-29T13:48:08.497Z,18.97
2019-01-29T13:50:40.443Z,20.50
2019-01-29T13:53:09.962Z,17.77
2019-01-29T13:58:10.497Z,18.03
2019-01-29T14:00:40.803Z,13.17
2019-01-29T14:03:12.031Z,20.70
2019-01-29T14:05:41.113Z,21.90
2019-01-29T14:08:11.657Z,23.37
2019-01-29T14:10:40.717Z,16.00
2019-01-29T14:13:13.736Z,10.73
2019-01-29T14:15:47.532Z,10.03
2019-01-29T14:18:16.983Z,13.43
2019-01-29T14:20:46.100Z,9.67
2019-01-29T14:23:16.528Z,7.83
2019-01-29T14:25:45.633Z,7.10
2019-01-29T14:28:19.892Z,7.47
2019-01-29T14:30:58.036Z,15.13
2019-01-29T14:33:27.305Z,12.07
2019-01-29T14:35:57.617Z,6.70
2019-01-29T14:38:28.927Z,7.50
2019-01-29T14:40:58.324Z,10.60
2019-01-29T14:43:30.013Z,10.23
2019-01-29T14:45:58.983Z,10.33
2019-01-29T14:48:28.575Z,7.03
2019-01-29T14:50:58.368Z,6.33
2019-01-29T14:53:30.435Z,8.13
2019-01-29T14:55:59.348Z,10.23
2019-01-29T14:58:28.368Z,8.30
2019-01-29T15:00:57.585Z,8.30
2019-01-29T15:03:26.439Z,8.00
2019-01-29T15:05:55.298Z,9.33
2019-01-29T15:08:24.374Z,5.63
2019-01-29T15:10:59.909Z,12.17
2019-01-29T15:13:28.909Z,5.60
2019-01-29T15:15:59.380Z,6.30
2019-01-29T15:18:29.864Z,5.80
2019-01-29T15:20:58.794Z,5.83
2019-01-29T15:23:27.753Z,6.93
2019-01-29T15:26:03.481Z,12.23
2019-01-29T15:28:36.408Z,7.73
2019-01-29T15:31:05.851Z,9.00
2019-01-29T15:33:34.940Z,7.10
2019-01-29T15:36:04.356Z,7.87
2019-01-29T15:38:34.520Z,11.23
2019-01-29T15:41:05.373Z,9.17
2019-01-29T15:43:34.400Z,11.20
2019-01-29T15:46:03.434Z,6.53
2019-01-29T15:48:32.402Z,9.73
2019-01-29T15:51:01.263Z,9.67
2019-01-29T15:53:30.223Z,11.07
2019-01-29T15:56:00.529Z,11.37
2019-01-29T15:58:29.635Z,11.67
2019-01-29T16:00:59.502Z,9.13
2019-01-29T16:03:28.389Z,8.97
2019-01-29T16:05:57.318Z,8.03
2019-01-29T16:08:26.634Z,8.93
2019-01-29T16:10:55.515Z,9.90
2019-01-29T16:13:32.570Z,7.77
2019-01-29T16:16:01.582Z,7.70
2019-01-29T16:18:30.486Z,13.13
2019-01-29T16:20:59.379Z,8.20
2019-01-29T16:23:28.428Z,7.27
2019-01-29T16:25:57.229Z,8.63
2019-01-29T16:28:26.236Z,7.93
2019-01-29T16:30:55.619Z,10.97
2019-01-29T16:33:24.780Z,6.83
2019-01-29T16:35:53.659Z,19.83
2019-01-29T16:38:22.842Z,9.13
2019-01-29T16:41:00.076Z,9.33
2019-01-29T16:43:22.469Z,8.17
2019-01-29T16:45:51.434Z,9.07
2019-01-29T16:48:20.554Z,6.10
2019-01-29T16:50:49.435Z,5.93
2019-01-29T16:53:18.592Z,6.53
2019-01-29T16:55:47.817Z,7.20
2019-01-29T16:58:17.414Z,6.83
2019-01-29T17:00:46.434Z,17.40
2019-01-29T17:03:15.406Z,7.23
2019-01-29T17:05:47.330Z,7.27
2019-01-29T17:08:17.265Z,9.33
2019-01-29T17:10:46.334Z,8.07
2019-01-29T17:13:15.516Z,16.00
2019-01-29T17:15:44.370Z,8.17
2019-01-29T17:18:13.663Z,7.50
2019-01-29T17:20:44.295Z,7.33
2019-01-29T17:23:16.314Z,10.00
2019-01-29T17:25:45.353Z,6.73
2019-01-29T17:28:20.594Z,6.73
2019-01-29T17:30:49.712Z,9.67
2019-01-29T17:33:20.151Z,10.53
2019-01-29T17:35:49.047Z,14.83
2019-01-29T17:38:18.068Z,8.20
2019-01-29T17:40:48.325Z,13.03
2019-01-29T17:43:17.331Z,6.80
2019-01-29T17:45:48.972Z,10.57
2019-01-29T17:48:17.909Z,8.43
2019-01-29T17:50:50.897Z,11.73
2019-01-29T17:53:20.292Z,10.10
2019-01-29T17:55:49.540Z,10.10
2019-01-29T17:58:18.653Z,9.50
2019-01-29T18:00:49.322Z,7.83
2019-01-29T18:03:19.573Z,7.53
2019-01-29T18:05:52.500Z,10.23
2019-01-29T18:08:25.957Z,8.17
2019-01-29T18:10:56.602Z,8.87
2019-01-29T18:13:25.750Z,10.27
2019-01-29T18:15:54.857Z,8.30
2019-01-29T18:18:23.675Z,10.97
2019-01-29T18:20:52.730Z,10.60
2019-01-29T18:23:27.332Z,9.27
2019-01-29T18:25:57.119Z,10.23
2019-01-29T18:28:26.147Z,9.70
2019-01-29T18:30:56.602Z,23.90
2019-01-29T18:33:28.097Z,13.40
2019-01-29T18:35:57.020Z,11.60
2019-01-29T18:38:27.164Z,10.03
2019-01-29T18:40:56.766Z,9.87
2019-01-29T18:43:25.896Z,10.77
2019-01-29T18:45:55.458Z,9.57
2019-01-29T18:48:24.314Z,8.63
2019-01-29T18:50:53.378Z,11.30
2019-01-29T18:53:22.355Z,10.43
2019-01-29T18:55:51.337Z,31.30
2019-01-29T18:58:22.630Z,27.37
2019-01-29T19:00:54.751Z,8.50
2019-01-29T19:03:23.847Z,13.97
2019-01-29T19:05:56.178Z,13.03
2019-01-29T19:08:27.505Z,17.93
2019-01-29T19:10:59.490Z,14.73
2019-01-29T19:13:28.509Z,15.00
2019-01-29T19:15:58.299Z,14.60
2019-01-29T19:21:28.010Z,10.80
2019-01-29T19:24:02.906Z,12.10
2019-01-29T19:29:24.791Z,8.13
2019-01-29T19:31:57.540Z,13.47
2019-01-29T19:34:42.144Z,13.40
2019-01-29T19:37:12.200Z,15.87
2019-01-29T19:42:57.403Z,12.27
2019-01-29T19:45:32.552Z,15.40
2019-01-29T19:48:02.983Z,18.80
2019-01-29T19:50:33.131Z,20.60
2019-01-29T19:53:02.043Z,15.40
2019-01-29T19:55:32.413Z,9.43
2019-01-29T19:58:09.298Z,8.80
2019-01-29T20:00:39.875Z,8.17
2019-01-29T20:03:11.340Z,7.87
2019-01-29T20:05:40.756Z,11.23
2019-01-29T20:08:12.723Z,12.97
2019-01-29T20:10:42.195Z,16.60
2019-01-29T20:13:13.299Z,16.83
2019-01-29T20:15:43.616Z,17.10
2019-01-29T20:18:13.139Z,18.90
2019-01-29T20:20:45.556Z,19.93
2019-01-29T20:23:15.753Z,13.43
2019-01-29T20:25:45.033Z,12.70
2019-01-29T20:28:14.234Z,12.40
2019-01-29T20:31:57.950Z,11.17
2019-01-29T20:33:48.351Z,17.53
2019-01-29T20:36:21.416Z,14.63
2019-01-29T20:38:50.264Z,10.33
2019-01-29T20:41:19.287Z,11.43
2019-01-29T20:43:48.336Z,14.80
2019-01-29T20:46:18.914Z,9.90
2019-01-29T20:48:49.363Z,12.37
2019-01-29T20:51:20.192Z,17.33
2019-01-29T20:53:49.169Z,12.10
2019-01-29T20:56:18.774Z,11.17
2019-01-29T20:58:52.673Z,14.63
2019-01-29T21:01:18.632Z,10.90
2019-01-29T21:03:49.859Z,9.70
2019-01-29T21:06:20.172Z,9.00
2019-01-29T21:08:49.003Z,7.80
2019-01-29T21:11:18.205Z,7.77
2019-01-29T21:13:47.457Z,9.03
2019-01-29T21:16:16.522Z,10.13
2019-01-29T21:18:45.437Z,8.23
2019-01-29T21:21:14.465Z,8.80
2019-01-29T21:23:44.213Z,8.07
2019-01-29T21:26:13.227Z,8.80
2019-01-29T21:28:42.326Z,7.60
2019-01-29T21:31:11.301Z,9.93
2019-01-29T21:33:40.362Z,9.27
2019-01-29T21:36:10.046Z,9.13
2019-01-29T21:38:39.095Z,10.23
2019-01-29T21:41:08.325Z,10.27
2019-01-29T21:43:37.237Z,9.47
2019-01-29T21:46:06.232Z,7.27
2019-01-29T21:48:37.276Z,7.53
2019-01-29T21:51:07.130Z,8.30
2019-01-29T21:53:36.124Z,11.93
2019-01-29T21:56:05.768Z,9.93
2019-01-29T21:58:34.657Z,8.23
2019-01-29T22:01:08.722Z,10.37
2019-01-29T22:03:37.241Z,7.03
2019-01-29T22:06:06.707Z,8.70
2019-01-29T22:08:35.687Z,7.07
2019-01-29T22:11:04.816Z,6.60
2019-01-29T22:13:34.582Z,7.30
2019-01-29T22:16:03.540Z,7.83
2019-01-29T22:18:32.563Z,8.87
2019-01-29T22:21:01.599Z,7.67
2019-01-29T22:23:30.504Z,6.83
2019-01-29T22:25:59.545Z,6.57
2019-01-29T22:28:28.427Z,6.90
2019-01-29T22:30:59.165Z,8.13
2019-01-29T22:33:28.806Z,9.93
2019-01-29T22:35:57.831Z,11.20
2019-01-29T22:38:26.716Z,7.83
2019-01-29T22:40:55.778Z,6.97
2019-01-29T22:43:24.683Z,6.70
2019-01-29T22:45:53.625Z,6.17
2019-01-29T22:48:22.660Z,6.97
2019-01-29T22:50:52.147Z,5.70
2019-01-29T22:53:21.151Z,6.70
2019-01-29T22:55:51.497Z,8.07
2019-01-29T22:58:21.206Z,8.73
2019-01-29T23:00:54.522Z,11.43
2019-01-29T23:03:27.429Z,8.13
2019-01-29T23:05:59.151Z,8.10
2019-01-29T23:08:28.117Z,9.87
2019-01-29T23:10:58.569Z,9.90
2019-01-29T23:13:27.766Z,8.50
2019-01-29T23:15:56.834Z,14.93
2019-01-29T23:18:25.759Z,8.73
2019-01-29T23:20:54.663Z,24.27
2019-01-29T23:23:24.153Z,14.20
2019-01-29T23:25:53.063Z,15.27
2019-01-29T23:28:23.528Z,12.63
2019-01-29T23:30:52.763Z,15.90
2019-01-29T23:33:21.881Z,12.23
2019-01-29T23:35:52.175Z,10.97
2019-01-29T23:38:22.455Z,10.50
2019-01-29T23:40:53.119Z,8.87
2019-01-29T23:43:22.184Z,13.00
2019-01-29T23:45:51.112Z,10.10
2019-01-29T23:48:21.336Z,12.67
2019-01-29T23:50:51.243Z,10.40
2019-01-29T23:53:21.470Z,11.90
2019-01-29T23:55:51.447Z,12.57
2019-01-29T23:58:20.386Z,20.30
